Time;durP1;ratioP1;P1;durP2;ratioP2;P2;SDS_P1;SDS_P2;PMS_P1;PMS_P2;Temp;Humidity;BMP_temperature;BMP_pressure;BME280_temperature;BME280_humidity;BME280_pressure;Samples;Min_cycle;Max_cycle;Signal;HPM_P1;HPM_P2
2023/11/02 00:02:27;;;;;;;11.27;3.20;;;8.90;100.00;;;;;;4933110;29;20070;-71
2023/11/02 00:04:55;;;;;;;7.17;3.60;;;8.90;100.00;;;;;;4926306;28;20063;-71
2023/11/02 00:07:23;;;;;;;10.80;3.20;;;8.90;100.00;;;;;;4932470;29;20090;-71
2023/11/02 00:09:56;;;;;;;18.17;3.60;;;9.00;100.00;;;;;;4935728;28;20047;-70
2023/11/02 00:12:29;;;;;;;6.40;3.30;;;9.10;100.00;;;;;;4919435;29;20050;-71
2023/11/02 00:14:59;;;;;;;6.28;3.50;;;9.10;100.00;;;;;;4936425;29;20532;-71
2023/11/02 00:17:37;;;;;;;8.98;3.90;;;9.10;100.00;;;;;;4919825;28;20054;-71
2023/11/02 00:20:11;;;;;;;15.48;3.85;;;9.20;100.00;;;;;;4941911;28;20540;-71
2023/11/02 00:22:43;;;;;;;8.57;3.90;;;9.20;100.00;;;;;;4928092;29;20051;-71
2023/11/02 00:25:43;;;;;;;15.57;4.22;;;9.30;100.00;;;;;;4930940;29;20079;-71
2023/11/02 00:28:11;;;;;;;12.38;4.55;;;9.30;100.00;;;;;;4923227;28;20468;-71
2023/11/02 00:30:40;;;;;;;19.08;4.05;;;9.30;100.00;;;;;;4914541;29;20052;-70
2023/11/02 00:33:07;;;;;;;8.45;4.43;;;9.40;100.00;;;;;;4938466;28;20059;-71
2023/11/02 00:35:34;;;;;;;18.35;4.30;;;9.40;100.00;;;;;;4935525;29;20566;-70
2023/11/02 00:38:02;;;;;;;17.83;4.75;;;9.40;100.00;;;;;;4933489;29;20194;-71
2023/11/02 00:40:29;;;;;;;12.82;4.38;;;9.40;100.00;;;;;;4917910;29;20169;-70
2023/11/02 00:42:56;;;;;;;23.75;4.53;;;9.40;100.00;;;;;;4917088;29;20059;-71
2023/11/02 00:45:24;;;;;;;15.88;3.90;;;9.40;100.00;;;;;;4919333;28;20161;-71
2023/11/02 00:47:53;;;;;;;9.65;4.25;;;9.40;100.00;;;;;;4916769;29;20077;-71
2023/11/02 00:50:59;;;;;;;11.90;4.10;;;9.40;100.00;;;;;;4931914;29;20660;-70
2023/11/02 00:53:28;;;;;;;6.05;3.83;;;9.40;100.00;;;;;;4935860;29;20050;-71
2023/11/02 00:55:56;;;;;;;17.00;4.07;;;9.50;100.00;;;;;;4935322;28;20047;-71
2023/11/02 00:58:31;;;;;;;13.32;3.80;;;9.50;100.00;;;;;;4914741;29;20063;-71
2023/11/02 01:01:11;;;;;;;12.93;4.22;;;9.50;100.00;;;;;;4918636;29;20058;-71
2023/11/02 01:03:39;;;;;;;9.18;3.72;;;9.50;100.00;;;;;;4912580;29;20190;-71
2023/11/02 01:06:15;;;;;;;8.38;3.60;;;9.50;100.00;;;;;;4937439;29;20047;-71
2023/11/02 01:08:42;;;;;;;20.02;4.18;;;9.50;100.00;;;;;;4934357;28;20142;-71
2023/11/02 01:11:10;;;;;;;14.02;3.63;;;9.50;100.00;;;;;;4915534;29;20103;-71
2023/11/02 01:13:37;;;;;;;12.88;3.63;;;9.50;100.00;;;;;;4912445;29;20086;-71
2023/11/02 01:16:07;;;;;;;14.68;4.10;;;9.50;100.00;;;;;;4933049;29;20058;-71
2023/11/02 01:18:35;;;;;;;15.30;3.63;;;9.40;100.00;;;;;;4933022;29;20132;-71
2023/11/02 01:21:03;;;;;;;15.40;4.00;;;9.50;100.00;;;;;;4922451;29;20118;-71
2023/11/02 01:23:32;;;;;;;17.67;4.22;;;9.40;100.00;;;;;;4935375;29;20051;-71
2023/11/02 01:26:06;;;;;;;8.77;4.05;;;9.40;100.00;;;;;;4931674;29;20051;-71
2023/11/02 01:28:53;;;;;;;8.70;3.75;;;9.40;100.00;;;;;;4919340;29;20596;-71
2023/11/02 01:31:21;;;;;;;10.23;3.47;;;9.30;100.00;;;;;;4931112;28;20051;-71
2023/11/02 01:33:55;;;;;;;9.18;3.40;;;9.20;100.00;;;;;;4939615;28;20087;-71
2023/11/02 01:36:31;;;;;;;12.60;3.00;;;9.20;100.00;;;;;;4910726;28;20049;-71
2023/11/02 01:39:15;;;;;;;8.25;3.10;;;9.20;100.00;;;;;;4933838;29;20559;-71
2023/11/02 01:41:51;;;;;;;6.93;3.38;;;9.10;100.00;;;;;;4941049;29;20468;-71
2023/11/02 01:44:20;;;;;;;7.82;3.08;;;9.10;100.00;;;;;;4917228;29;20082;-71
2023/11/02 01:46:53;;;;;;;10.40;3.67;;;9.10;100.00;;;;;;4930190;28;20071;-71
2023/11/02 01:49:49;;;;;;;10.40;3.47;;;9.00;100.00;;;;;;4929860;28;20130;-71
2023/11/02 01:52:22;;;;;;;16.38;3.70;;;9.00;100.00;;;;;;4934270;28;20055;-71
2023/11/02 01:55:16;;;;;;;11.02;3.30;;;8.90;100.00;;;;;;4927952;28;20091;-71
2023/11/02 01:57:49;;;;;;;14.02;3.70;;;8.90;100.00;;;;;;4928448;28;20071;-71
2023/11/02 02:00:17;;;;;;;21.23;3.60;;;8.80;100.00;;;;;;4924912;28;20106;-71
2023/11/02 02:03:15;;;;;;;11.75;3.97;;;8.80;100.00;;;;;;4936161;28;20059;-71
2023/11/02 02:05:52;;;;;;;15.30;3.58;;;8.80;100.00;;;;;;4921260;29;20052;-71
2023/11/02 02:08:41;;;;;;;12.77;4.10;;;8.80;100.00;;;;;;4921945;29;20147;-71
2023/11/02 02:11:46;;;;;;;12.75;3.55;;;8.70;100.00;;;;;;4937243;28;20117;-71
2023/11/02 02:14:45;;;;;;;12.13;3.58;;;8.70;100.00;;;;;;4919466;29;20170;-71
2023/11/02 02:17:20;;;;;;;16.60;3.85;;;8.60;100.00;;;;;;4928708;29;20063;-70
2023/11/02 02:20:12;;;;;;;13.00;3.60;;;8.60;100.00;;;;;;4915703;29;20109;-71
2023/11/02 02:22:51;;;;;;;10.13;3.20;;;8.70;100.00;;;;;;4932039;29;20048;-70
2023/11/02 02:25:35;;;;;;;10.88;3.35;;;8.70;100.00;;;;;;4932981;29;20118;-71
2023/11/02 02:28:25;;;;;;;8.98;3.97;;;8.80;100.00;;;;;;4929483;29;20059;-71
2023/11/02 02:31:01;;;;;;;10.02;3.75;;;8.90;100.00;;;;;;4938990;28;20074;-71
2023/11/02 02:34:04;;;;;;;12.55;3.50;;;9.00;100.00;;;;;;4920625;29;21748;-70
2023/11/02 02:36:39;;;;;;;9.32;3.60;;;9.00;100.00;;;;;;4931317;28;20051;-71
2023/11/02 02:39:10;;;;;;;13.85;3.92;;;9.10;100.00;;;;;;4937838;28;20138;-71
2023/11/02 02:41:39;;;;;;;8.98;3.50;;;9.10;100.00;;;;;;4923348;29;20085;-71
2023/11/02 02:44:11;;;;;;;14.40;3.30;;;9.00;100.00;;;;;;4938233;29;20236;-71
2023/11/02 02:46:40;;;;;;;16.00;3.60;;;9.00;100.00;;;;;;4916300;29;20060;-71
2023/11/02 02:49:15;;;;;;;10.38;3.75;;;9.00;100.00;;;;;;4933037;29;20756;-71
2023/11/02 02:51:46;;;;;;;9.32;3.03;;;9.00;100.00;;;;;;4917619;29;20059;-70
2023/11/02 02:54:16;;;;;;;9.75;3.42;;;9.00;100.00;;;;;;4941594;28;20055;-70
2023/11/02 02:56:46;;;;;;;19.35;3.75;;;9.00;100.00;;;;;;4943134;28;20061;-70
2023/11/02 02:59:17;;;;;;;14.07;3.55;;;9.00;100.00;;;;;;4915977;29;20090;-71
2023/11/02 03:01:46;;;;;;;12.30;3.33;;;8.90;100.00;;;;;;4951469;23;20467;-71
2023/11/02 03:04:19;;;;;;;9.32;3.50;;;8.90;100.00;;;;;;4943931;28;20153;-70
2023/11/02 03:06:57;;;;;;;7.28;3.05;;;8.90;100.00;;;;;;4954677;28;20131;-71
2023/11/02 03:09:29;;;;;;;6.35;2.92;;;8.90;100.00;;;;;;4949062;28;20494;-70
2023/11/02 03:12:01;;;;;;;7.72;2.80;;;8.80;100.00;;;;;;4954720;28;20077;-70
2023/11/02 03:17:43;;;;;;;6.30;2.80;;;8.80;100.00;;;;;;4884292;29;20120;-76
2023/11/02 03:20:12;;;;;;;10.52;2.80;;;8.80;100.00;;;;;;4890136;29;20059;-75
2023/11/02 03:22:42;;;;;;;9.10;2.80;;;8.70;100.00;;;;;;4876040;29;20135;-75
2023/11/02 03:25:16;;;;;;;7.15;2.90;;;8.70;100.00;;;;;;4870967;29;20066;-76
2023/11/02 03:28:09;;;;;;;5.68;2.58;;;8.60;100.00;;;;;;4886103;29;20062;-75
2023/11/02 03:31:04;;;;;;;5.03;2.70;;;8.60;100.00;;;;;;4852551;29;20722;-75
2023/11/02 03:34:00;;;;;;;7.18;2.97;;;8.50;100.00;;;;;;4887560;29;20641;-76
2023/11/02 03:36:46;;;;;;;9.43;3.30;;;8.50;100.00;;;;;;4887810;29;20593;-76
2023/11/02 03:39:12;;;;;;;8.05;2.90;;;8.50;100.00;;;;;;4872641;29;20056;-76
2023/11/02 03:41:48;;;;;;;7.15;3.03;;;8.50;100.00;;;;;;4872922;29;20128;-76
2023/11/02 03:44:32;;;;;;;13.85;2.83;;;8.40;100.00;;;;;;4869688;29;20088;-75
2023/11/02 03:47:04;;;;;;;8.13;3.33;;;8.40;100.00;;;;;;4889082;29;20779;-75
2023/11/02 03:49:49;;;;;;;10.32;2.65;;;8.40;100.00;;;;;;4868795;29;20056;-76
2023/11/02 03:52:18;;;;;;;8.73;2.60;;;8.30;100.00;;;;;;4889514;29;20513;-75
2023/11/02 03:55:11;;;;;;;9.60;2.70;;;8.30;100.00;;;;;;4872846;29;20057;-76
2023/11/02 03:57:58;;;;;;;10.60;3.08;;;8.30;100.00;;;;;;4887546;29;20053;-76
2023/11/02 04:00:30;;;;;;;12.63;3.15;;;8.20;100.00;;;;;;4865371;29;20162;-75
2023/11/02 04:03:06;;;;;;;12.02;2.80;;;8.20;100.00;;;;;;4888888;29;20065;-75
2023/11/02 04:05:44;;;;;;;6.97;2.85;;;8.20;100.00;;;;;;4887358;29;20061;-76
2023/11/02 04:08:19;;;;;;;11.65;3.00;;;8.10;100.00;;;;;;4888370;29;20532;-75
2023/11/02 04:11:20;;;;;;;8.27;2.63;;;8.10;100.00;;;;;;4890142;29;20402;-75
2023/11/02 04:13:57;;;;;;;8.05;2.75;;;8.10;100.00;;;;;;4867135;29;20196;-76
2023/11/02 04:16:26;;;;;;;7.57;3.15;;;8.00;100.00;;;;;;4869940;29;20104;-76
2023/11/02 04:18:53;;;;;;;10.48;2.75;;;8.00;100.00;;;;;;4892089;29;20085;-75
2023/11/02 04:21:20;;;;;;;10.15;2.88;;;8.00;100.00;;;;;;4874397;29;20072;-76
2023/11/02 04:23:47;;;;;;;8.25;3.00;;;8.00;100.00;;;;;;4886784;29;20054;-75
2023/11/02 04:26:14;;;;;;;17.27;3.65;;;8.00;100.00;;;;;;4867306;29;20053;-76
2023/11/02 04:28:42;;;;;;;9.57;3.13;;;8.00;100.00;;;;;;4895358;29;20140;-75
2023/11/02 04:31:09;;;;;;;15.23;3.25;;;7.90;100.00;;;;;;4872005;29;20379;-76
2023/11/02 04:33:36;;;;;;;6.95;3.03;;;7.90;100.00;;;;;;4881918;29;20057;-76
2023/11/02 04:36:04;;;;;;;10.70;3.10;;;7.90;100.00;;;;;;4868367;29;20171;-75
2023/11/02 04:38:31;;;;;;;7.45;2.90;;;7.90;100.00;;;;;;4887759;29;20064;-76
2023/11/02 04:40:58;;;;;;;11.15;3.20;;;7.80;100.00;;;;;;4888924;29;20063;-76
2023/11/02 04:43:25;;;;;;;5.18;2.70;;;7.80;100.00;;;;;;4886398;29;20083;-76
2023/11/02 04:45:52;;;;;;;9.40;2.92;;;7.80;100.00;;;;;;4871042;29;20049;-76
2023/11/02 04:48:20;;;;;;;12.13;3.13;;;7.80;100.00;;;;;;4886787;29;20132;-77
2023/11/02 04:50:55;;;;;;;7.93;3.05;;;7.70;100.00;;;;;;4889884;29;20056;-76
2023/11/02 04:53:23;;;;;;;5.43;2.53;;;7.70;100.00;;;;;;4889780;29;20048;-76
2023/11/02 04:55:50;;;;;;;6.13;2.95;;;7.70;100.00;;;;;;4889349;29;20104;-76
2023/11/02 04:58:16;;;;;;;8.57;3.28;;;7.70;100.00;;;;;;4887060;29;20100;-76
2023/11/02 05:00:43;;;;;;;9.48;3.28;;;7.60;100.00;;;;;;4886244;29;20131;-76
2023/11/02 05:03:10;;;;;;;15.30;3.55;;;7.60;100.00;;;;;;4872866;29;20068;-76
2023/11/02 05:05:37;;;;;;;9.43;2.97;;;7.60;100.00;;;;;;4890727;29;20203;-76
2023/11/02 05:08:08;;;;;;;6.85;3.10;;;7.60;100.00;;;;;;4887780;29;20140;-76
2023/11/02 05:10:35;;;;;;;8.65;3.25;;;7.60;100.00;;;;;;4861119;29;20057;-76
2023/11/02 05:13:02;;;;;;;7.88;2.72;;;7.50;100.00;;;;;;4887020;29;20579;-76
2023/11/02 05:15:29;;;;;;;11.73;2.92;;;7.50;100.00;;;;;;4866111;29;20171;-76
2023/11/02 05:17:56;;;;;;;9.70;2.85;;;7.50;100.00;;;;;;4887139;29;20058;-76
2023/11/02 05:20:25;;;;;;;10.43;3.13;;;7.50;100.00;;;;;;4887083;29;20091;-76
2023/11/02 05:22:52;;;;;;;6.07;3.08;;;7.50;100.00;;;;;;4865394;29;20052;-76
2023/11/02 05:25:19;;;;;;;9.98;3.10;;;7.50;100.00;;;;;;4887202;29;20053;-76
2023/11/02 05:27:46;;;;;;;14.05;3.42;;;7.40;100.00;;;;;;4881260;29;20136;-76
2023/11/02 05:30:13;;;;;;;7.90;2.97;;;7.50;100.00;;;;;;4872117;29;20056;-76
2023/11/02 05:32:40;;;;;;;6.32;3.30;;;7.40;100.00;;;;;;4888617;29;20159;-76
2023/11/02 05:35:09;;;;;;;4.07;2.58;;;7.40;100.00;;;;;;4889560;29;20067;-76
2023/11/02 05:37:36;;;;;;;21.23;3.88;;;7.40;100.00;;;;;;4866322;29;20087;-77
2023/11/02 05:40:04;;;;;;;9.60;3.25;;;7.40;100.00;;;;;;4888346;29;20048;-76
2023/11/02 05:42:30;;;;;;;13.18;2.85;;;7.40;100.00;;;;;;4874172;29;20120;-76
2023/11/02 05:44:57;;;;;;;6.70;3.08;;;7.40;100.00;;;;;;4886299;29;20063;-76
2023/11/02 05:47:26;;;;;;;6.65;2.90;;;7.40;100.00;;;;;;4899587;23;20046;-79
2023/11/02 05:49:53;;;;;;;8.40;2.78;;;7.40;100.00;;;;;;4985815;28;20745;-77
2023/11/02 05:52:19;;;;;;;11.70;3.45;;;7.30;100.00;;;;;;4963786;28;20042;-77
2023/11/02 05:54:46;;;;;;;11.65;2.78;;;7.30;100.00;;;;;;4988247;28;20426;-76
2023/11/02 05:57:14;;;;;;;11.48;2.85;;;7.30;100.00;;;;;;4988267;28;20134;-76
2023/11/02 05:59:41;;;;;;;9.85;2.75;;;7.30;100.00;;;;;;4988133;28;20395;-76
2023/11/02 06:02:09;;;;;;;6.30;2.70;;;7.30;100.00;;;;;;4965411;28;20054;-75
2023/11/02 06:04:36;;;;;;;8.60;3.30;;;7.30;100.00;;;;;;4981659;28;20054;-78
2023/11/02 06:07:04;;;;;;;5.90;3.30;;;7.30;100.00;;;;;;4985805;28;20573;-76
2023/11/02 06:09:31;;;;;;;12.18;3.03;;;7.30;100.00;;;;;;4970197;28;20054;-77
2023/11/02 06:11:58;;;;;;;17.00;2.88;;;7.30;100.00;;;;;;4982868;28;20070;-83
2023/11/02 06:14:25;;;;;;;6.53;3.10;;;7.30;100.00;;;;;;4966704;28;20105;-78
2023/11/02 06:16:52;;;;;;;10.93;3.22;;;7.30;100.00;;;;;;4962315;28;20376;-76
2023/11/02 06:19:19;;;;;;;6.88;2.63;;;7.20;100.00;;;;;;4988010;28;20100;-77
2023/11/02 06:21:47;;;;;;;12.20;2.95;;;7.20;100.00;;;;;;4985602;28;20393;-80
2023/11/02 06:24:14;;;;;;;5.68;2.90;;;7.20;100.00;;;;;;4968772;28;20054;-80
2023/11/02 06:26:41;;;;;;;5.25;2.80;;;7.10;100.00;;;;;;4970221;28;20061;-79
2023/11/02 06:29:10;;;;;;;8.05;2.85;;;7.10;100.00;;;;;;4972920;28;20117;-87
2023/11/02 06:31:37;;;;;;;6.40;2.53;;;7.10;100.00;;;;;;4962790;28;20051;-78
2023/11/02 06:34:04;;;;;;;7.43;2.17;;;7.10;100.00;;;;;;4966783;28;20054;-76
2023/11/02 06:36:31;;;;;;;6.18;2.88;;;7.10;100.00;;;;;;4980541;28;20145;-77
2023/11/02 06:38:58;;;;;;;5.97;2.92;;;7.10;100.00;;;;;;4989449;28;20161;-77
2023/11/02 06:41:25;;;;;;;7.65;3.67;;;7.10;100.00;;;;;;4983744;28;20750;-76
2023/11/02 06:43:52;;;;;;;9.32;2.70;;;7.10;100.00;;;;;;4985559;28;20050;-76
2023/11/02 06:46:19;;;;;;;12.82;3.03;;;7.20;100.00;;;;;;4982121;28;20133;-77
2023/11/02 06:48:46;;;;;;;11.38;3.28;;;7.20;100.00;;;;;;4968492;28;20086;-76
2023/11/02 06:51:13;;;;;;;5.40;2.83;;;7.20;100.00;;;;;;4980634;28;20055;-76
2023/11/02 06:53:40;;;;;;;12.15;2.92;;;7.20;100.00;;;;;;4986381;28;20475;-76
2023/11/02 06:56:08;;;;;;;8.93;3.00;;;7.20;100.00;;;;;;4969085;28;20054;-77
2023/11/02 06:58:35;;;;;;;12.00;3.10;;;7.20;100.00;;;;;;4984570;28;20046;-77
2023/11/02 07:01:02;;;;;;;12.20;3.15;;;7.30;100.00;;;;;;4983839;28;20051;-77
2023/11/02 07:03:29;;;;;;;7.20;2.50;;;7.40;100.00;;;;;;4979433;28;20512;-78
2023/11/02 07:05:56;;;;;;;7.72;2.50;;;7.40;100.00;;;;;;4986786;28;20054;-77
2023/11/02 07:08:23;;;;;;;7.75;2.58;;;7.50;100.00;;;;;;4967503;28;20785;-77
2023/11/02 07:10:50;;;;;;;7.03;2.47;;;7.50;100.00;;;;;;4984603;28;20129;-77
2023/11/02 07:13:18;;;;;;;7.35;2.88;;;7.60;100.00;;;;;;4986646;28;20097;-77
2023/11/02 07:15:45;;;;;;;8.82;3.20;;;7.60;100.00;;;;;;4969531;28;20050;-78
2023/11/02 07:18:12;;;;;;;5.35;2.92;;;7.70;100.00;;;;;;4972636;28;20054;-79
2023/11/02 07:20:39;;;;;;;9.02;2.70;;;7.80;100.00;;;;;;4973080;28;20046;-78
2023/11/02 07:23:08;;;;;;;8.82;3.95;;;7.80;100.00;;;;;;4976229;28;20051;-78
2023/11/02 07:25:38;;;;;;;9.73;3.40;;;7.90;100.00;;;;;;4993517;28;20809;-79
2023/11/02 07:28:05;;;;;;;6.55;2.75;;;8.00;100.00;;;;;;4976807;28;20120;-79
2023/11/02 07:30:32;;;;;;;6.20;2.80;;;8.00;100.00;;;;;;4993153;28;20061;-78
2023/11/02 07:32:59;;;;;;;12.52;3.00;;;8.10;100.00;;;;;;4975974;28;20100;-78
2023/11/02 07:35:27;;;;;;;14.50;2.72;;;8.10;100.00;;;;;;4967416;28;20133;-78
2023/11/02 07:37:54;;;;;;;10.77;2.65;;;8.20;100.00;;;;;;4963190;28;20129;-78
2023/11/02 07:40:21;;;;;;;6.93;2.78;;;8.20;100.00;;;;;;4991086;28;20105;-78
2023/11/02 07:42:48;;;;;;;5.30;2.53;;;8.30;100.00;;;;;;4992366;28;20054;-78
2023/11/02 07:45:15;;;;;;;4.95;2.55;;;8.40;100.00;;;;;;4990674;28;20046;-78
2023/11/02 07:47:41;;;;;;;8.18;2.65;;;8.40;100.00;;;;;;4974657;28;20372;-77
2023/11/02 07:50:09;;;;;;;5.50;2.65;;;8.50;100.00;;;;;;4992277;28;20052;-78
2023/11/02 07:52:37;;;;;;;11.40;2.25;;;8.50;100.00;;;;;;4990942;28;20109;-78
2023/11/02 07:55:04;;;;;;;10.07;2.72;;;8.60;100.00;;;;;;4985268;28;20113;-78
2023/11/02 07:57:31;;;;;;;3.78;2.17;;;8.70;100.00;;;;;;4990140;28;20395;-78
2023/11/02 07:59:58;;;;;;;9.02;2.88;;;8.70;100.00;;;;;;4986108;28;20764;-78
2023/11/02 08:02:25;;;;;;;6.13;2.33;;;8.80;100.00;;;;;;4976686;23;20051;-77
2023/11/02 08:04:52;;;;;;;6.25;2.45;;;8.80;100.00;;;;;;4928789;29;20053;-78
2023/11/02 08:07:19;;;;;;;8.63;2.13;;;8.80;100.00;;;;;;4943390;28;20077;-78
2023/11/02 08:09:47;;;;;;;7.53;2.42;;;8.90;100.00;;;;;;4935650;28;20122;-78
2023/11/02 08:12:15;;;;;;;8.88;2.78;;;8.90;100.00;;;;;;4945066;28;20127;-76
2023/11/02 08:14:43;;;;;;;10.45;2.38;;;9.00;100.00;;;;;;4944332;29;20050;-78
2023/11/02 08:17:12;;;;;;;7.43;2.35;;;9.10;100.00;;;;;;4922339;29;20056;-78
2023/11/02 08:19:39;;;;;;;7.97;2.38;;;9.20;100.00;;;;;;4935802;28;20056;-78
2023/11/02 08:22:06;;;;;;;8.50;2.40;;;9.30;100.00;;;;;;4949029;28;20098;-78
2023/11/02 08:24:32;;;;;;;4.88;2.40;;;9.40;100.00;;;;;;4930598;28;20107;-77
2023/11/02 08:26:59;;;;;;;4.95;2.00;;;9.50;100.00;;;;;;4940111;28;20051;-77
2023/11/02 08:29:26;;;;;;;9.65;2.00;;;9.60;100.00;;;;;;4939677;28;20104;-78
2023/11/02 08:31:53;;;;;;;6.38;2.33;;;9.60;100.00;;;;;;4938908;28;20091;-78
2023/11/02 08:34:20;;;;;;;8.10;2.17;;;9.60;100.00;;;;;;4942158;28;20078;-78
2023/11/02 08:36:47;;;;;;;6.20;2.10;;;9.70;100.00;;;;;;4917283;29;20102;-77
2023/11/02 08:39:14;;;;;;;5.70;2.22;;;9.70;100.00;;;;;;4937377;28;20055;-78
2023/11/02 08:41:41;;;;;;;5.50;2.28;;;9.70;100.00;;;;;;4940434;28;20047;-78
2023/11/02 08:44:08;;;;;;;3.80;1.48;;;9.70;100.00;;;;;;4938837;28;20134;-77
2023/11/02 08:46:36;;;;;;;5.43;1.88;;;9.70;100.00;;;;;;4931181;28;20047;-78
2023/11/02 08:49:03;;;;;;;4.25;1.70;;;9.70;100.00;;;;;;4931551;29;20052;-77
2023/11/02 08:51:31;;;;;;;5.18;1.98;;;9.70;100.00;;;;;;4931868;28;20405;-77
2023/11/02 08:53:59;;;;;;;13.77;2.03;;;9.70;100.00;;;;;;4924649;29;20775;-77
2023/11/02 08:56:26;;;;;;;4.13;1.92;;;9.70;100.00;;;;;;4922977;28;20052;-77
2023/11/02 08:58:54;;;;;;;6.55;1.58;;;9.70;100.00;;;;;;4928945;29;20106;-78
2023/11/02 09:01:25;;;;;;;6.95;2.10;;;9.60;100.00;;;;;;4935350;29;20508;-77
2023/11/02 09:03:54;;;;;;;7.57;2.85;;;9.60;100.00;;;;;;4917765;29;20091;-78
2023/11/02 09:06:23;;;;;;;3.85;1.60;;;9.60;100.00;;;;;;4935898;28;20445;-78
2023/11/02 09:08:51;;;;;;;8.45;2.05;;;9.60;100.00;;;;;;4911195;29;20059;-78
2023/11/02 09:11:18;;;;;;;5.93;2.10;;;9.60;100.00;;;;;;4921169;29;20058;-78
2023/11/02 09:13:46;;;;;;;11.38;1.75;;;9.70;100.00;;;;;;4940311;28;20051;-78
2023/11/02 09:16:13;;;;;;;5.65;1.90;;;9.80;100.00;;;;;;4947016;28;20157;-78
2023/11/02 09:18:41;;;;;;;11.15;1.75;;;9.90;100.00;;;;;;4936780;28;20079;-78
2023/11/02 09:21:09;;;;;;;5.80;1.70;;;10.00;100.00;;;;;;4944905;28;20783;-78
2023/11/02 09:23:37;;;;;;;4.97;1.70;;;10.00;100.00;;;;;;4926532;28;20058;-78
2023/11/02 09:26:05;;;;;;;7.85;2.00;;;10.10;100.00;;;;;;4939246;23;20170;-71
2023/11/02 09:28:33;;;;;;;9.30;1.95;;;10.10;100.00;;;;;;4935516;28;20644;-72
2023/11/02 09:31:00;;;;;;;5.53;1.50;;;10.10;100.00;;;;;;4938548;28;20122;-71
2023/11/02 09:33:27;;;;;;;5.28;1.80;;;10.20;100.00;;;;;;4914528;28;20083;-71
2023/11/02 09:35:54;;;;;;;6.40;1.60;;;10.30;100.00;;;;;;4928545;28;20052;-72
2023/11/02 09:38:21;;;;;;;4.97;1.52;;;10.40;100.00;;;;;;4928788;28;20087;-72
2023/11/02 09:40:49;;;;;;;13.48;1.67;;;10.50;100.00;;;;;;4941285;28;20091;-71
2023/11/02 09:43:16;;;;;;;5.90;1.42;;;10.60;100.00;;;;;;4915945;29;20175;-71
2023/11/02 09:45:44;;;;;;;14.95;1.75;;;10.70;100.00;;;;;;4913695;28;20059;-72
2023/11/02 09:48:12;;;;;;;9.27;1.20;;;10.80;100.00;;;;;;4939219;28;20058;-73
2023/11/02 09:50:40;;;;;;;4.22;1.38;;;10.80;100.00;;;;;;4935700;28;20060;-71
2023/11/02 09:53:08;;;;;;;7.75;1.45;;;10.90;100.00;;;;;;4939875;28;20048;-71
2023/11/02 09:55:40;;;;;;;5.40;1.35;;;11.00;100.00;;;;;;4934390;28;20449;-72
2023/11/02 09:58:09;;;;;;;4.10;1.30;;;11.20;100.00;;;;;;4939285;28;20063;-72
2023/11/02 10:00:37;;;;;;;7.60;1.20;;;11.20;100.00;;;;;;4938922;28;20067;-72
2023/11/02 10:03:06;;;;;;;2.97;1.30;;;11.20;100.00;;;;;;4928627;28;20055;-72
2023/11/02 10:05:35;;;;;;;8.55;1.33;;;11.20;100.00;;;;;;4914845;28;20051;-72
2023/11/02 10:08:02;;;;;;;4.93;1.23;;;11.20;100.00;;;;;;4939708;28;20066;-72
2023/11/02 10:10:33;;;;;;;8.25;1.30;;;11.30;100.00;;;;;;4915580;28;20748;-72
2023/11/02 10:13:00;;;;;;;3.10;1.13;;;11.30;100.00;;;;;;4936192;28;20099;-72
2023/11/02 10:15:30;;;;;;;9.15;1.25;;;11.30;100.00;;;;;;4922670;28;20058;-71
2023/11/02 10:17:57;;;;;;;4.07;1.50;;;11.40;100.00;;;;;;4920336;29;20637;-71
2023/11/02 10:20:25;;;;;;;4.30;1.30;;;11.40;100.00;;;;;;4922814;28;20090;-72
2023/11/02 10:22:59;;;;;;;5.65;1.50;;;11.50;100.00;;;;;;4935396;28;20520;-72
2023/11/02 10:25:29;;;;;;;2.78;1.00;;;11.50;100.00;;;;;;4932127;28;20122;-72
2023/11/02 10:27:58;;;;;;;2.47;1.05;;;11.50;100.00;;;;;;4944607;28;20043;-71
2023/11/02 10:30:25;;;;;;;9.77;1.58;;;11.50;100.00;;;;;;4947154;28;20062;-72
2023/11/02 10:33:00;;;;;;;3.75;1.40;;;11.40;100.00;;;;;;4923530;29;20560;-72
2023/11/02 10:35:28;;;;;;;6.63;1.45;;;11.50;100.00;;;;;;4932830;28;20059;-72
2023/11/02 10:37:58;;;;;;;5.38;1.02;;;11.50;100.00;;;;;;4930320;28;20051;-72
2023/11/02 10:40:45;;;;;;;2.42;1.17;;;11.50;100.00;;;;;;4941569;28;20051;-72
2023/11/02 10:43:18;;;;;;;6.82;1.58;;;11.50;100.00;;;;;;4934428;28;20062;-72
2023/11/02 10:45:52;;;;;;;9.48;1.20;;;11.50;100.00;;;;;;4930389;28;20046;-71
2023/11/02 10:48:21;;;;;;;4.03;1.48;;;11.40;100.00;;;;;;4913223;29;20055;-72
2023/11/02 10:50:55;;;;;;;5.25;1.90;;;11.40;100.00;;;;;;4916744;29;20039;-72
2023/11/02 10:54:04;;;;;;;2.83;1.48;;;11.40;100.00;;;;;;4911826;29;20103;-72
2023/11/02 10:57:05;;;;;;;5.70;1.73;;;11.40;100.00;;;;;;4939741;28;20433;-72
2023/11/02 10:59:34;;;;;;;6.25;1.67;;;11.40;100.00;;;;;;4942037;28;20114;-71
2023/11/02 11:02:04;;;;;;;7.68;1.88;;;11.50;100.00;;;;;;4924691;29;20166;-72
2023/11/02 11:04:34;;;;;;;6.20;1.63;;;11.50;100.00;;;;;;4945710;28;20146;-72
2023/11/02 11:07:03;;;;;;;2.10;1.17;;;11.50;100.00;;;;;;4934367;28;20058;-72
2023/11/02 11:09:32;;;;;;;4.53;1.73;;;11.60;100.00;;;;;;4929770;28;20079;-72
2023/11/02 11:12:00;;;;;;;6.13;1.83;;;11.60;100.00;;;;;;4935290;28;20059;-72
2023/11/02 11:14:29;;;;;;;8.55;1.73;;;11.60;100.00;;;;;;4944607;28;20044;-72
2023/11/02 11:16:57;;;;;;;6.43;1.50;;;11.60;100.00;;;;;;4939963;28;20059;-71
2023/11/02 11:19:29;;;;;;;4.72;1.90;;;11.70;100.00;;;;;;4938068;28;20051;-71
2023/11/02 11:21:58;;;;;;;12.20;1.45;;;11.80;100.00;;;;;;4938370;28;20054;-71
2023/11/02 11:24:32;;;;;;;3.65;1.50;;;11.80;100.00;;;;;;4939441;28;20059;-71
2023/11/02 11:27:02;;;;;;;8.38;1.50;;;11.90;100.00;;;;;;4928928;29;20047;-71
2023/11/02 11:29:36;;;;;;;5.47;1.55;;;11.90;100.00;;;;;;4919256;28;20492;-71
2023/11/02 11:32:06;;;;;;;3.93;1.80;;;11.90;100.00;;;;;;4917712;29;20051;-71
2023/11/02 11:34:57;;;;;;;5.95;2.00;;;12.00;100.00;;;;;;4920081;28;20500;-71
2023/11/02 11:37:57;;;;;;;9.18;1.60;;;12.00;100.00;;;;;;4933661;28;20058;-71
2023/11/02 11:40:26;;;;;;;13.55;2.08;;;12.00;100.00;;;;;;4933818;28;20527;-71
2023/11/02 11:43:12;;;;;;;7.68;2.00;;;12.10;100.00;;;;;;4946129;28;20572;-71
2023/11/02 11:46:01;;;;;;;5.35;2.40;;;12.10;100.00;;;;;;4918560;28;20115;-72
2023/11/02 11:48:45;;;;;;;5.63;1.73;;;12.20;100.00;;;;;;4949043;23;20098;-71
2023/11/02 11:51:40;;;;;;;7.28;1.88;;;12.20;100.00;;;;;;4946975;28;20784;-71
2023/11/02 11:54:10;;;;;;;2.88;1.50;;;12.20;100.00;;;;;;4933287;28;20051;-71
2023/11/02 11:56:38;;;;;;;5.88;1.77;;;12.30;100.00;;;;;;4933811;28;20063;-71
2023/11/02 11:59:06;;;;;;;5.63;1.38;;;12.30;100.00;;;;;;4940566;28;20082;-71
2023/11/02 12:01:33;;;;;;;2.35;1.40;;;12.30;100.00;;;;;;4918852;29;20059;-71
2023/11/02 12:04:02;;;;;;;2.92;1.45;;;12.20;100.00;;;;;;4937590;28;20051;-71
2023/11/02 12:06:36;;;;;;;4.32;1.65;;;12.30;100.00;;;;;;4931733;28;20166;-71
2023/11/02 12:09:04;;;;;;;4.97;2.10;;;12.20;100.00;;;;;;4939826;28;20047;-71
2023/11/02 12:11:31;;;;;;;10.10;1.67;;;12.20;100.00;;;;;;4934466;28;20126;-71
2023/11/02 12:14:00;;;;;;;3.13;1.63;;;12.20;100.00;;;;;;4942018;28;20110;-71
2023/11/02 12:16:37;;;;;;;6.05;1.80;;;12.20;100.00;;;;;;4913275;28;20140;-72
2023/11/02 12:22:48;;;;;;;6.07;1.67;;;12.30;100.00;;;;;;4905082;29;20152;-72
2023/11/02 12:25:18;;;;;;;3.65;1.40;;;12.30;100.00;;;;;;4909825;29;20667;-72
2023/11/02 12:27:57;;;;;;;4.53;1.52;;;12.30;100.00;;;;;;4896490;29;20047;-72
2023/11/02 12:30:24;;;;;;;9.38;1.38;;;12.30;100.00;;;;;;4910762;29;20099;-73
2023/11/02 12:32:52;;;;;;;6.70;1.40;;;12.30;100.00;;;;;;4908709;29;20040;-72
2023/11/02 12:35:21;;;;;;;9.38;1.73;;;12.30;100.00;;;;;;4913263;29;20059;-73
2023/11/02 12:38:08;;;;;;;3.20;1.30;;;12.30;100.00;;;;;;4900667;29;20736;-73
2023/11/02 12:40:51;;;;;;;16.10;2.25;;;12.20;100.00;;;;;;4892644;29;20056;-73
2023/11/02 12:43:23;;;;;;;7.13;1.45;;;12.20;100.00;;;;;;4907062;29;20055;-72
2023/11/02 12:45:58;;;;;;;8.13;1.85;;;12.20;100.00;;;;;;4907645;29;20052;-72
2023/11/02 12:48:36;;;;;;;13.95;2.10;;;12.10;100.00;;;;;;4908531;29;20626;-72
2023/11/02 12:51:16;;;;;;;5.82;1.60;;;12.10;100.00;;;;;;4907962;29;20059;-72
2023/11/02 12:53:44;;;;;;;2.88;1.38;;;12.10;100.00;;;;;;4907614;29;21013;-73
2023/11/02 12:56:17;;;;;;;4.60;1.17;;;12.10;100.00;;;;;;4914419;29;20138;-73
2023/11/02 12:58:44;;;;;;;9.68;1.98;;;12.10;100.00;;;;;;4907919;29;20805;-73
2023/11/02 13:01:13;;;;;;;12.75;1.80;;;12.10;100.00;;;;;;4887098;29;20872;-72
2023/11/02 13:04:03;;;;;;;7.18;1.70;;;12.00;100.00;;;;;;4907178;29;20060;-73
2023/11/02 13:06:35;;;;;;;6.55;1.27;;;12.10;100.00;;;;;;4905756;29;20044;-72
2023/11/02 13:09:07;;;;;;;8.38;1.60;;;12.00;100.00;;;;;;4903154;29;20064;-72
2023/11/02 13:11:34;;;;;;;8.82;1.30;;;12.00;100.00;;;;;;4906853;29;20119;-73